Time;durP1;ratioP1;P1;durP2;ratioP2;P2;SDS_P1;SDS_P2;PMS_P1;PMS_P2;Temp;Humidity;BMP_temperature;BMP_pressure;BME280_temperature;BME280_humidity;BME280_pressure;Samples;Min_cycle;Max_cycle;Signal;HPM_P1;HPM_P2
2022/06/01 00:00:44;;;;;;;8.07;2.30;;;;;;;;;;5058138;28;20051;-62
2022/06/01 00:03:10;;;;;;;3.88;2.20;;;;;;;;;;5057828;28;20473;-62
2022/06/01 00:05:36;;;;;;;11.65;3.33;;;;;;;;;;5058200;28;20079;-62
2022/06/01 00:08:03;;;;;;;3.88;2.00;;;;;;;;;;5059213;28;20489;-62
2022/06/01 00:10:29;;;;;;;9.52;3.35;;;;;;;;;;5063986;28;20621;-63
2022/06/01 00:12:55;;;;;;;9.35;3.00;;;;;;;;;;5060039;28;20037;-63
2022/06/01 00:15:22;;;;;;;6.70;2.50;;;;;;;;;;5053897;28;20549;-62
2022/06/01 00:17:48;;;;;;;13.23;2.20;;;;;;;;;;5052529;28;20371;-62
2022/06/01 00:20:14;;;;;;;8.27;2.72;;;;;;;;;;5059493;28;20031;-62
2022/06/01 00:22:44;;;;;;;4.47;2.50;;;;;;;;;;5056168;28;20469;-63
2022/06/01 00:25:11;;;;;;;3.97;1.98;;;;;;;;;;5056848;28;20032;-62
2022/06/01 00:27:38;;;;;;;2.92;2.03;;;;;;;;;;5056346;28;20025;-62
2022/06/01 00:30:05;;;;;;;5.80;2.80;;;;;;;;;;5058365;28;20040;-62
2022/06/01 00:32:31;;;;;;;8.98;2.65;;;;;;;;;;5059239;28;20025;-62
2022/06/01 00:35:00;;;;;;;6.97;2.70;;;;;;;;;;5056141;28;20033;-62
2022/06/01 00:37:26;;;;;;;5.50;2.33;;;;;;;;;;5056612;28;20044;-62
2022/06/01 00:39:53;;;;;;;8.82;2.58;;;;;;;;;;5055849;28;20030;-62
2022/06/01 00:42:24;;;;;;;7.00;2.30;;;;;;;;;;5055703;28;20119;-62
2022/06/01 00:44:50;;;;;;;5.55;2.78;;;;;;;;;;5056324;28;20037;-62
2022/06/01 00:47:17;;;;;;;8.35;2.55;;;;;;;;;;5054505;28;20542;-62
2022/06/01 00:49:47;;;;;;;8.48;2.88;;;;;;;;;;5061931;28;20025;-62
2022/06/01 00:52:15;;;;;;;7.43;2.60;;;;;;;;;;5057395;28;20028;-62
2022/06/01 00:54:41;;;;;;;10.88;2.85;;;;;;;;;;5051683;28;20096;-63
2022/06/01 00:57:13;;;;;;;10.20;3.25;;;;;;;;;;5057704;28;20032;-62
2022/06/01 00:59:44;;;;;;;11.05;2.88;;;;;;;;;;5052860;28;20102;-63
2022/06/01 01:02:11;;;;;;;3.93;2.47;;;;;;;;;;5056669;28;20040;-62
2022/06/01 01:04:39;;;;;;;2.78;2.08;;;;;;;;;;5060198;28;20280;-62
2022/06/01 01:07:09;;;;;;;6.13;2.55;;;;;;;;;;5054025;28;20561;-62
2022/06/01 01:09:35;;;;;;;8.70;2.40;;;;;;;;;;5054820;28;20025;-62
2022/06/01 01:12:06;;;;;;;6.32;2.30;;;;;;;;;;5058804;28;20059;-62
2022/06/01 01:14:35;;;;;;;8.80;3.00;;;;;;;;;;5056797;28;20036;-62
2022/06/01 01:17:04;;;;;;;10.05;2.60;;;;;;;;;;5053200;28;20405;-62
2022/06/01 01:19:39;;;;;;;3.75;2.45;;;;;;;;;;5062096;28;20039;-62
2022/06/01 01:22:23;;;;;;;6.30;2.60;;;;;;;;;;5053535;28;20129;-61
2022/06/01 01:25:20;;;;;;;9.77;2.70;;;;;;;;;;5058008;28;20063;-62
2022/06/01 01:27:51;;;;;;;8.45;2.55;;;;;;;;;;5054738;28;20033;-62
2022/06/01 01:30:35;;;;;;;8.18;2.42;;;;;;;;;;5049451;28;20037;-62
2022/06/01 01:33:12;;;;;;;5.00;2.92;;;;;;;;;;5058391;28;20465;-62
2022/06/01 01:35:39;;;;;;;8.13;2.78;;;;;;;;;;5058187;28;20060;-62
2022/06/01 01:38:10;;;;;;;4.32;2.90;;;;;;;;;;5051398;28;20142;-62
2022/06/01 01:40:36;;;;;;;6.50;2.60;;;;;;;;;;5065076;28;20430;-62
2022/06/01 01:43:03;;;;;;;5.72;2.20;;;;;;;;;;5061392;28;20028;-62
2022/06/01 01:45:31;;;;;;;4.20;2.25;;;;;;;;;;5057084;28;20385;-62
2022/06/01 01:47:58;;;;;;;8.68;2.42;;;;;;;;;;5059736;28;20052;-62
2022/06/01 01:50:24;;;;;;;4.03;2.10;;;;;;;;;;5066892;28;20025;-62
2022/06/01 01:52:51;;;;;;;5.47;2.58;;;;;;;;;;5056148;28;20077;-62
2022/06/01 01:55:58;;;;;;;3.55;2.28;;;;;;;;;;5056858;28;20120;-62
2022/06/01 01:58:41;;;;;;;5.53;2.50;;;;;;;;;;4996968;28;20638;-62
2022/06/01 02:01:16;;;;;;;6.10;2.65;;;;;;;;;;5000789;28;20120;-62
2022/06/01 02:03:49;;;;;;;7.93;2.30;;;;;;;;;;5005469;28;20033;-62
2022/06/01 02:06:23;;;;;;;5.10;2.28;;;;;;;;;;5000407;28;20040;-62
2022/06/01 02:08:58;;;;;;;4.10;2.22;;;;;;;;;;5004417;28;20050;-62
2022/06/01 02:14:13;;;;;;;5.18;2.40;;;;;;;;;;5002069;28;20026;-62
2022/06/01 02:16:45;;;;;;;10.38;2.33;;;;;;;;;;5005641;28;20056;-62
2022/06/01 02:19:24;;;;;;;5.18;2.53;;;;;;;;;;5003400;28;20033;-62
2022/06/01 02:21:51;;;;;;;4.28;2.53;;;;;;;;;;5006338;28;20038;-62
2022/06/01 02:24:18;;;;;;;9.63;2.40;;;;;;;;;;5001760;28;20041;-62
2022/06/01 02:26:46;;;;;;;5.40;2.38;;;;;;;;;;4997719;28;20034;-62
2022/06/01 02:29:17;;;;;;;5.75;2.10;;;;;;;;;;5030897;28;20044;-62
2022/06/01 02:31:43;;;;;;;5.53;2.13;;;;;;;;;;5061708;28;20033;-62
2022/06/01 02:34:11;;;;;;;8.95;2.63;;;;;;;;;;5056366;28;20489;-62
2022/06/01 02:36:40;;;;;;;4.03;2.00;;;;;;;;;;5055047;28;20056;-62
2022/06/01 02:39:09;;;;;;;3.15;2.15;;;;;;;;;;5057022;28;20457;-60
2022/06/01 02:44:19;;;;;;;3.42;2.20;;;;;;;;;;5057850;28;20384;-62
2022/06/01 02:46:45;;;;;;;5.95;2.85;;;;;;;;;;5067722;28;20094;-62
2022/06/01 02:49:12;;;;;;;8.13;3.17;;;;;;;;;;5063257;28;20384;-62
2022/06/01 02:51:37;;;;;;;5.65;2.40;;;;;;;;;;5058826;28;20078;-62
2022/06/01 02:54:03;;;;;;;6.03;2.35;;;;;;;;;;5058707;28;20401;-62
2022/06/01 02:56:29;;;;;;;6.88;2.50;;;;;;;;;;5058524;28;20087;-61
2022/06/01 02:58:56;;;;;;;5.90;2.33;;;;;;;;;;5057182;28;20033;-62
2022/06/01 03:01:22;;;;;;;2.65;1.90;;;;;;;;;;5057828;28;20037;-62
2022/06/01 03:03:48;;;;;;;6.80;2.67;;;;;;;;;;5057712;28;20037;-62
2022/06/01 03:06:14;;;;;;;3.20;2.75;;;;;;;;;;5054838;28;20566;-62
2022/06/01 03:08:42;;;;;;;5.72;2.30;;;;;;;;;;5059306;28;20057;-62
2022/06/01 03:11:08;;;;;;;9.57;3.03;;;;;;;;;;5060906;28;20025;-62
2022/06/01 03:13:33;;;;;;;4.13;2.72;;;;;;;;;;5067876;28;20119;-62
2022/06/01 03:15:59;;;;;;;4.47;2.33;;;;;;;;;;5060743;28;20090;-62
2022/06/01 03:18:26;;;;;;;6.05;2.60;;;;;;;;;;5055414;28;20773;-62
2022/06/01 03:20:51;;;;;;;9.27;2.28;;;;;;;;;;5058399;28;20064;-62
2022/06/01 03:23:19;;;;;;;9.15;2.60;;;;;;;;;;5060225;28;20032;-62
2022/06/01 03:25:45;;;;;;;5.43;2.50;;;;;;;;;;5048483;28;20044;-62
2022/06/01 03:28:10;;;;;;;9.18;3.25;;;;;;;;;;5054949;28;20470;-62
2022/06/01 03:30:36;;;;;;;4.90;2.47;;;;;;;;;;5059033;28;20055;-62
2022/06/01 03:33:03;;;;;;;5.90;2.55;;;;;;;;;;5055014;28;20036;-62
2022/06/01 03:35:32;;;;;;;5.32;2.60;;;;;;;;;;5062512;28;20490;-62
2022/06/01 03:37:58;;;;;;;6.28;2.53;;;;;;;;;;5061501;28;20529;-62
2022/06/01 03:40:25;;;;;;;11.23;2.78;;;;;;;;;;5057489;28;20115;-61
2022/06/01 03:42:51;;;;;;;8.57;2.88;;;;;;;;;;5054963;28;20143;-62
2022/06/01 03:48:02;;;;;;;6.53;2.65;;;;;;;;;;5056036;28;20378;-62
2022/06/01 03:50:29;;;;;;;9.48;2.72;;;;;;;;;;5054886;28;20064;-61
2022/06/01 03:52:55;;;;;;;7.57;2.80;;;;;;;;;;5054994;28;20690;-61
2022/06/01 03:55:21;;;;;;;7.90;2.65;;;;;;;;;;5062539;28;20044;-62
2022/06/01 03:57:47;;;;;;;11.63;2.90;;;;;;;;;;5053058;28;20044;-62
2022/06/01 04:00:20;;;;;;;12.52;2.78;;;;;;;;;;5057071;28;20017;-62
2022/06/01 04:02:47;;;;;;;8.52;2.42;;;;;;;;;;5056191;28;20036;-62
2022/06/01 04:05:13;;;;;;;5.28;2.75;;;;;;;;;;5055863;28;23059;-61
2022/06/01 04:07:38;;;;;;;8.20;3.13;;;;;;;;;;5059469;28;20099;-62
2022/06/01 04:10:05;;;;;;;7.63;2.60;;;;;;;;;;5060069;28;20024;-62
2022/06/01 04:12:31;;;;;;;7.78;2.97;;;;;;;;;;5059776;28;20465;-62
2022/06/01 04:15:00;;;;;;;9.15;3.00;;;;;;;;;;5053257;28;20025;-62
2022/06/01 04:17:26;;;;;;;6.30;2.88;;;;;;;;;;5057419;28;20108;-61
2022/06/01 04:19:52;;;;;;;9.82;2.60;;;;;;;;;;5054373;28;20100;-61
2022/06/01 04:22:19;;;;;;;4.90;2.60;;;;;;;;;;5053352;28;20110;-62
2022/06/01 04:24:46;;;;;;;7.18;2.40;;;;;;;;;;5058401;28;20079;-62
2022/06/01 04:27:11;;;;;;;6.35;3.35;;;;;;;;;;5052529;28;20407;-61
2022/06/01 04:29:37;;;;;;;3.47;2.30;;;;;;;;;;5051620;28;20033;-62
2022/06/01 04:32:11;;;;;;;5.72;2.75;;;;;;;;;;5051878;28;20659;-61
2022/06/01 04:34:37;;;;;;;9.65;3.25;;;;;;;;;;5053413;28;20068;-61
2022/06/01 04:37:03;;;;;;;5.30;2.63;;;;;;;;;;5039491;28;20501;-62
2022/06/01 04:39:28;;;;;;;7.78;2.85;;;;;;;;;;5053434;28;20029;-61
2022/06/01 04:41:54;;;;;;;8.88;2.47;;;;;;;;;;5056225;28;20040;-61
2022/06/01 04:44:20;;;;;;;9.45;2.40;;;;;;;;;;5054816;28;20089;-62
2022/06/01 04:46:46;;;;;;;3.75;2.90;;;;;;;;;;5052656;28;20123;-61
2022/06/01 04:49:12;;;;;;;5.93;2.67;;;;;;;;;;5054684;28;20040;-61
2022/06/01 04:51:39;;;;;;;4.47;2.30;;;;;;;;;;5058351;28;20067;-62
2022/06/01 04:54:07;;;;;;;7.18;2.50;;;;;;;;;;5059571;28;20622;-61
2022/06/01 04:56:33;;;;;;;6.32;2.38;;;;;;;;;;5065755;28;20040;-62
2022/06/01 04:58:59;;;;;;;8.10;2.90;;;;;;;;;;5057086;28;20036;-62
2022/06/01 05:01:25;;;;;;;5.18;2.50;;;;;;;;;;5056357;28;20048;-62
2022/06/01 05:03:51;;;;;;;12.63;3.55;;;;;;;;;;5056900;28;20028;-62
2022/06/01 05:06:17;;;;;;;5.53;2.35;;;;;;;;;;5055452;28;20033;-62
2022/06/01 05:08:43;;;;;;;6.93;2.30;;;;;;;;;;5049708;28;20056;-62
2022/06/01 05:11:09;;;;;;;13.20;2.50;;;;;;;;;;5058775;28;20037;-61
2022/06/01 05:13:34;;;;;;;11.15;2.65;;;;;;;;;;5056815;28;20098;-62
2022/06/01 05:16:01;;;;;;;8.98;2.70;;;;;;;;;;5058742;28;20032;-62
2022/06/01 05:18:28;;;;;;;5.93;2.75;;;;;;;;;;5058294;28;20481;-61
2022/06/01 05:20:54;;;;;;;6.70;2.75;;;;;;;;;;5060254;28;20074;-62
2022/06/01 05:23:21;;;;;;;5.70;2.33;;;;;;;;;;5056239;28;20028;-62
2022/06/01 05:25:49;;;;;;;11.43;2.63;;;;;;;;;;5058410;28;20032;-63
2022/06/01 05:28:27;;;;;;;9.90;2.58;;;;;;;;;;5056706;28;20044;-61
2022/06/01 05:30:57;;;;;;;5.10;2.05;;;;;;;;;;5056281;28;20024;-61
2022/06/01 05:33:23;;;;;;;3.92;2.40;;;;;;;;;;5054091;28;20078;-61
2022/06/01 05:35:49;;;;;;;9.25;2.25;;;;;;;;;;5053018;28;20025;-60
2022/06/01 05:38:15;;;;;;;7.50;2.60;;;;;;;;;;5061718;28;20093;-61
2022/06/01 05:40:41;;;;;;;3.83;2.20;;;;;;;;;;5064744;28;20110;-61
2022/06/01 05:43:09;;;;;;;5.82;2.35;;;;;;;;;;5067696;28;20408;-60
2022/06/01 05:45:36;;;;;;;4.80;2.38;;;;;;;;;;5060640;28;20066;-61
2022/06/01 05:48:02;;;;;;;4.47;2.17;;;;;;;;;;5059486;28;20837;-61
2022/06/01 05:50:28;;;;;;;6.80;2.38;;;;;;;;;;5062219;28;20029;-60
2022/06/01 05:52:53;;;;;;;10.18;2.25;;;;;;;;;;5045892;28;20509;-61
2022/06/01 05:55:19;;;;;;;8.32;2.75;;;;;;;;;;5059340;28;20048;-61
2022/06/01 05:57:45;;;;;;;5.50;2.55;;;;;;;;;;5055260;28;20037;-61
2022/06/01 06:00:11;;;;;;;6.55;2.22;;;;;;;;;;5059436;28;20028;-61
2022/06/01 06:02:39;;;;;;;10.98;2.30;;;;;;;;;;5057234;28;20037;-61
2022/06/01 06:06:11;;;;;;;4.10;2.63;;;;;;;;;;5071485;28;20057;-61
2022/06/01 06:07:52;;;;;;;5.63;2.17;;;;;;;;;;5063452;28;20033;-61
2022/06/01 06:10:18;;;;;;;4.03;1.98;;;;;;;;;;5061956;28;20029;-61
2022/06/01 06:12:43;;;;;;;9.25;1.98;;;;;;;;;;5059237;28;20101;-61
2022/06/01 06:15:10;;;;;;;3.08;1.63;;;;;;;;;;5056232;28;20034;-61
2022/06/01 06:17:35;;;;;;;11.07;2.08;;;;;;;;;;5055200;28;20029;-61
2022/06/01 06:20:02;;;;;;;5.88;1.85;;;;;;;;;;5058395;28;20036;-62
2022/06/01 06:22:28;;;;;;;8.95;2.50;;;;;;;;;;5059815;28;20409;-60
2022/06/01 06:24:54;;;;;;;4.95;1.92;;;;;;;;;;5063632;28;20028;-61
2022/06/01 06:27:20;;;;;;;5.15;2.10;;;;;;;;;;5054634;28;20440;-61
2022/06/01 06:29:45;;;;;;;3.10;2.17;;;;;;;;;;5055510;28;20090;-61
2022/06/01 06:32:11;;;;;;;9.27;2.13;;;;;;;;;;5057448;28;20111;-61
2022/06/01 06:34:38;;;;;;;2.92;1.83;;;;;;;;;;5066482;28;20107;-61
2022/06/01 06:37:04;;;;;;;2.90;1.63;;;;;;;;;;5063350;28;20041;-61
2022/06/01 06:39:30;;;;;;;2.42;1.80;;;;;;;;;;5054978;28;20111;-61
2022/06/01 06:41:56;;;;;;;4.05;2.08;;;;;;;;;;5055992;28;20103;-61
2022/06/01 06:44:21;;;;;;;4.65;2.05;;;;;;;;;;5057469;28;20494;-61
2022/06/01 06:46:47;;;;;;;7.80;2.10;;;;;;;;;;5064742;28;20039;-61
2022/06/01 06:49:13;;;;;;;6.63;1.80;;;;;;;;;;5062038;28;20024;-61
2022/06/01 06:51:39;;;;;;;9.80;2.60;;;;;;;;;;5055305;28;20127;-61
2022/06/01 06:54:05;;;;;;;5.60;1.83;;;;;;;;;;5051252;28;20108;-61
2022/06/01 06:56:31;;;;;;;2.83;1.75;;;;;;;;;;5052569;28;20025;-61
2022/06/01 06:58:57;;;;;;;7.15;2.10;;;;;;;;;;5057259;28;20457;-61
2022/06/01 07:01:23;;;;;;;14.05;2.38;;;;;;;;;;5067477;28;20055;-62
2022/06/01 07:03:49;;;;;;;6.00;3.33;;;;;;;;;;5058995;28;20037;-61
2022/06/01 07:06:17;;;;;;;9.95;3.30;;;;;;;;;;5054288;28;20028;-61
2022/06/01 07:08:48;;;;;;;9.77;3.90;;;;;;;;;;5062404;28;20119;-61
2022/06/01 07:11:15;;;;;;;16.25;4.32;;;;;;;;;;5065872;28;20025;-61
2022/06/01 07:13:41;;;;;;;8.80;4.32;;;;;;;;;;5052500;28;20044;-61
2022/06/01 07:16:09;;;;;;;10.52;4.63;;;;;;;;;;5057619;28;20484;-61
2022/06/01 07:18:38;;;;;;;13.48;5.70;;;;;;;;;;5053085;28;20037;-61
2022/06/01 07:21:05;;;;;;;17.63;4.20;;;;;;;;;;5055920;28;20028;-61
2022/06/01 07:23:31;;;;;;;13.48;5.15;;;;;;;;;;5052266;28;20033;-61
2022/06/01 07:25:57;;;;;;;10.25;4.90;;;;;;;;;;5059834;28;20117;-61
2022/06/01 07:28:23;;;;;;;12.00;4.03;;;;;;;;;;5061599;28;20103;-61
2022/06/01 07:30:50;;;;;;;19.50;4.57;;;;;;;;;;5058339;28;20040;-62
2022/06/01 07:33:19;;;;;;;26.05;4.22;;;;;;;;;;5052181;28;20099;-62
2022/06/01 07:35:44;;;;;;;6.63;3.95;;;;;;;;;;5053710;28;20485;-62
2022/06/01 07:43:40;;;;;;;13.38;5.45;;;;;;;;;;5060456;28;20028;-62
2022/06/01 07:46:07;;;;;;;15.38;6.63;;;;;;;;;;5056012;28;20047;-62
2022/06/01 07:48:34;;;;;;;22.25;6.22;;;;;;;;;;5043091;28;20029;-62
2022/06/01 07:51:00;;;;;;;23.23;7.43;;;;;;;;;;5052712;28;20025;-61
2022/06/01 07:53:26;;;;;;;17.40;6.72;;;;;;;;;;5052069;28;20396;-61
2022/06/01 07:55:51;;;;;;;15.63;6.70;;;;;;;;;;5056388;28;20135;-62
2022/06/01 07:58:17;;;;;;;22.83;7.30;;;;;;;;;;5059533;28;20504;-62
2022/06/01 08:00:43;;;;;;;42.92;8.25;;;;;;;;;;5061016;28;20397;-62
2022/06/01 08:03:15;;;;;;;24.60;7.07;;;;;;;;;;5054035;28;20089;-62
2022/06/01 08:05:41;;;;;;;32.30;6.88;;;;;;;;;;5051722;28;20036;-62
2022/06/01 08:08:07;;;;;;;19.33;6.85;;;;;;;;;;5058122;28;20041;-61
2022/06/01 08:10:34;;;;;;;10.88;6.15;;;;;;;;;;5063507;28;20036;-61
2022/06/01 08:13:09;;;;;;;27.75;4.72;;;;;;;;;;5058953;28;20028;-62
2022/06/01 08:15:40;;;;;;;11.82;5.75;;;;;;;;;;5057031;28;20512;-62
2022/06/01 08:18:07;;;;;;;19.35;5.35;;;;;;;;;;5056793;28;20033;-62
2022/06/01 08:20:34;;;;;;;10.40;4.95;;;;;;;;;;5054477;28;20035;-62
2022/06/01 08:23:00;;;;;;;21.77;5.15;;;;;;;;;;5056036;28;20021;-62
2022/06/01 08:25:28;;;;;;;13.82;4.75;;;;;;;;;;5055437;28;20525;-62
2022/06/01 08:27:53;;;;;;;14.18;4.70;;;;;;;;;;5061170;28;20037;-62
2022/06/01 08:30:23;;;;;;;11.02;4.85;;;;;;;;;;5056720;28;20028;-62
2022/06/01 08:32:50;;;;;;;15.48;4.25;;;;;;;;;;5053523;28;20040;-62
2022/06/01 08:35:19;;;;;;;11.63;4.53;;;;;;;;;;5054685;28;20396;-62
2022/06/01 08:37:46;;;;;;;11.23;4.55;;;;;;;;;;5054874;28;20027;-62
2022/06/01 08:40:13;;;;;;;7.85;4.40;;;;;;;;;;5057957;28;20037;-62
2022/06/01 08:42:47;;;;;;;8.32;4.25;;;;;;;;;;5050938;28;20409;-62
2022/06/01 08:45:14;;;;;;;11.07;4.00;;;;;;;;;;5060840;28;20028;-62
2022/06/01 08:47:41;;;;;;;7.18;3.63;;;;;;;;;;5055974;28;20028;-62
2022/06/01 08:50:29;;;;;;;12.65;3.67;;;;;;;;;;5051293;28;26694;-62
2022/06/01 08:52:59;;;;;;;9.35;3.55;;;;;;;;;;5056737;28;20036;-62
2022/06/01 08:55:27;;;;;;;16.85;4.60;;;;;;;;;;5056739;28;20929;-63
2022/06/01 08:58:04;;;;;;;8.73;3.40;;;;;;;;;;5056037;28;20576;-62
2022/06/01 09:00:35;;;;;;;7.63;2.60;;;;;;;;;;5051356;28;20389;-61
2022/06/01 09:03:20;;;;;;;7.47;3.08;;;;;;;;;;5053167;28;20021;-61
2022/06/01 09:05:54;;;;;;;13.82;3.60;;;;;;;;;;5057718;28;20496;-62
2022/06/01 09:08:40;;;;;;;8.32;2.78;;;;;;;;;;5056396;28;20029;-62
2022/06/01 09:11:16;;;;;;;5.53;2.35;;;;;;;;;;5068574;28;20335;-62
2022/06/01 09:14:01;;;;;;;7.53;2.70;;;;;;;;;;5062690;28;20028;-62
2022/06/01 09:16:34;;;;;;;11.70;2.70;;;;;;;;;;5063180;28;20102;-61
2022/06/01 09:19:00;;;;;;;8.38;2.88;;;;;;;;;;5060597;28;20025;-63
2022/06/01 09:24:28;;;;;;;7.85;2.45;;;;;;;;;;5056024;28;20035;-62
2022/06/01 09:27:04;;;;;;;;;;;;;;;;;;5057742;28;20517;-62
2022/06/01 09:29:33;;;;;;;5.25;3.20;;;;;;;;;;5057034;28;19986;-62
2022/06/01 09:32:03;;;;;;;7.65;2.40;;;;;;;;;;5057555;28;20560;-63
2022/06/01 09:34:40;;;;;;;12.70;2.13;;;;;;;;;;5061439;28;20052;-62
2022/06/01 09:37:13;;;;;;;12.45;3.35;;;;;;;;;;5066414;28;20117;-62
2022/06/01 09:39:49;;;;;;;8.80;2.10;;;;;;;;;;5059542;28;20029;-62
2022/06/01 09:42:25;;;;;;;5.38;2.08;;;;;;;;;;5056847;28;20071;-63
2022/06/01 09:44:53;;;;;;;6.40;1.98;;;;;;;;;;5060497;28;20032;-63
2022/06/01 09:47:43;;;;;;;10.70;2.08;;;;;;;;;;5058861;28;20501;-62
2022/06/01 09:50:18;;;;;;;9.32;2.05;;;;;;;;;;5053836;28;20049;-62
2022/06/01 09:52:44;;;;;;;5.63;2.13;;;;;;;;;;5058715;28;20379;-62
2022/06/01 09:55:20;;;;;;;5.22;2.08;;;;;;;;;;5062716;28;20510;-62
2022/06/01 09:58:00;;;;;;;14.00;3.05;;;;;;;;;;5064839;28;20032;-63
2022/06/01 10:06:18;;;;;;;8.15;3.40;;;;;;;;;;5055674;28;20035;-63
2022/06/01 10:09:11;;;;;;;6.53;2.63;;;;;;;;;;5057169;28;20495;-62
2022/06/01 10:11:42;;;;;;;13.73;3.72;;;;;;;;;;5067772;28;20477;-62
2022/06/01 10:14:24;;;;;;;11.27;4.00;;;;;;;;;;5041904;28;20052;-63
2022/06/01 10:17:22;;;;;;;8.90;4.47;;;;;;;;;;5055341;28;20036;-62
2022/06/01 10:19:47;;;;;;;11.10;3.97;;;;;;;;;;5053983;28;20556;-62
2022/06/01 10:22:25;;;;;;;16.38;4.22;;;;;;;;;;5061148;28;20040;-63
2022/06/01 10:25:20;;;;;;;10.98;4.25;;;;;;;;;;5056211;28;20077;-63
2022/06/01 10:28:00;;;;;;;5.50;3.65;;;;;;;;;;5064553;28;20067;-63
2022/06/01 10:30:32;;;;;;;14.23;3.97;;;;;;;;;;5052133;28;20048;-63
2022/06/01 10:33:23;;;;;;;11.20;3.85;;;;;;;;;;5062164;28;20032;-62
2022/06/01 10:36:02;;;;;;;5.75;2.50;;;;;;;;;;5057163;28;20127;-62
2022/06/01 10:39:07;;;;;;;5.43;3.20;;;;;;;;;;5062609;28;20021;-62
2022/06/01 10:41:41;;;;;;;7.88;3.05;;;;;;;;;;5004137;28;20140;-62
2022/06/01 10:44:25;;;;;;;19.77;4.10;;;;;;;;;;5004832;28;28675;-62
2022/06/01 10:46:57;;;;;;;15.10;4.10;;;;;;;;;;5006904;28;20026;-62
2022/06/01 10:49:46;;;;;;;9.55;3.25;;;;;;;;;;5005820;28;20034;-63
2022/06/01 10:52:41;;;;;;;7.28;3.03;;;;;;;;;;5005080;28;20034;-63
2022/06/01 10:55:24;;;;;;;15.80;3.38;;;;;;;;;;5005323;28;20518;-63
2022/06/01 10:57:50;;;;;;;10.73;3.00;;;;;;;;;;5001870;28;20029;-63
2022/06/01 11:00:20;;;;;;;10.95;2.80;;;;;;;;;;5006288;28;20030;-63
2022/06/01 11:03:10;;;;;;;14.48;3.30;;;;;;;;;;5004950;28;20049;-63
2022/06/01 11:06:02;;;;;;;5.68;2.90;;;;;;;;;;5003895;28;20034;-63
2022/06/01 11:08:37;;;;;;;9.65;3.22;;;;;;;;;;5004717;28;20038;-62
2022/06/01 11:11:21;;;;;;;6.50;3.50;;;;;;;;;;5006115;28;20061;-63
2022/06/01 11:14:09;;;;;;;8.63;3.17;;;;;;;;;;5003954;28;20092;-63
2022/06/01 11:16:50;;;;;;;10.10;3.47;;;;;;;;;;5046400;28;20108;-62
2022/06/01 11:19:31;;;;;;;13.43;3.63;;;;;;;;;;5058833;28;20041;-63
2022/06/01 11:21:56;;;;;;;13.90;3.90;;;;;;;;;;5051979;28;20159;-63
2022/06/01 11:24:31;;;;;;;9.60;3.70;;;;;;;;;;5053151;28;20115;-63
2022/06/01 11:27:15;;;;;;;16.45;3.95;;;;;;;;;;5053345;28;20512;-64
2022/06/01 11:30:12;;;;;;;11.75;3.17;;;;;;;;;;5056334;28;20532;-63
2022/06/01 11:32:47;;;;;;;7.20;3.35;;;;;;;;;;5006288;28;20046;-64
2022/06/01 11:35:16;;;;;;;6.68;2.92;;;;;;;;;;5001394;28;20057;-63
2022/06/01 11:38:20;;;;;;;9.27;3.10;;;;;;;;;;4990634;28;20092;-66
2022/06/01 11:40:52;;;;;;;15.82;3.28;;;;;;;;;;5009923;28;20041;-62
2022/06/01 11:43:29;;;;;;;5.18;2.60;;;;;;;;;;5005806;28;20743;-63
2022/06/01 11:46:00;;;;;;;8.70;3.10;;;;;;;;;;5005940;28;20029;-63
2022/06/01 11:48:31;;;;;;;6.97;2.78;;;;;;;;;;5005974;28;20034;-63
2022/06/01 11:51:45;;;;;;;11.95;3.05;;;;;;;;;;5008362;28;20050;-63
2022/06/01 11:54:25;;;;;;;9.98;2.38;;;;;;;;;;4982238;28;20050;-63
2022/06/01 11:57:22;;;;;;;11.98;2.63;;;;;;;;;;5004146;28;20415;-63
2022/06/01 12:00:16;;;;;;;6.47;2.65;;;;;;;;;;5001478;28;20042;-62
2022/06/01 12:02:47;;;;;;;7.53;3.00;;;;;;;;;;5004455;28;20458;-63
2022/06/01 12:05:22;;;;;;;7.57;2.58;;;;;;;;;;5007727;28;20026;-64
2022/06/01 12:08:05;;;;;;;13.65;2.45;;;;;;;;;;5011638;28;20041;-63
2022/06/01 12:10:51;;;;;;;8.93;2.20;;;;;;;;;;5053298;28;20037;-63
2022/06/01 12:13:38;;;;;;;9.00;2.20;;;;;;;;;;5061026;28;20036;-63
2022/06/01 12:16:04;;;;;;;9.00;2.72;;;;;;;;;;5050445;28;20140;-63
2022/06/01 12:18:32;;;;;;;8.77;2.50;;;;;;;;;;5052881;28;20108;-63
2022/06/01 12:21:34;;;;;;;8.05;2.25;;;;;;;;;;5057704;28;20043;-63
2022/06/01 12:30:17;;;;;;;7.65;2.40;;;;;;;;;;5058248;28;20036;-64
2022/06/01 12:32:59;;;;;;;10.55;2.40;;;;;;;;;;5056396;28;20051;-63
2022/06/01 12:35:45;;;;;;;;;;;;;;;;;;5055626;28;20033;-63
2022/06/01 12:38:22;;;;;;;8.85;2.05;;;;;;;;;;5055545;28;20456;-63
2022/06/01 12:41:05;;;;;;;8.60;2.20;;;;;;;;;;5057808;28;20029;-64
2022/06/01 12:43:31;;;;;;;10.10;2.28;;;;;;;;;;5039766;28;20025;-63
2022/06/01 12:45:58;;;;;;;10.02;1.98;;;;;;;;;;5045751;28;20028;-63
2022/06/01 12:48:23;;;;;;;12.02;1.90;;;;;;;;;;5057550;28;20051;-64
2022/06/01 12:51:04;;;;;;;13.20;2.03;;;;;;;;;;5064370;28;20496;-63
2022/06/01 12:53:44;;;;;;;10.85;1.90;;;;;;;;;;5056321;28;20497;-63
2022/06/01 12:56:28;;;;;;;8.40;2.35;;;;;;;;;;5053152;28;20163;-63
2022/06/01 12:58:55;;;;;;;13.70;3.17;;;;;;;;;;5053429;28;20037;-63
2022/06/01 13:01:27;;;;;;;9.13;2.78;;;;;;;;;;5057746;28;20407;-63
2022/06/01 13:03:57;;;;;;;8.18;2.13;;;;;;;;;;5053319;28;20032;-64
2022/06/01 13:06:26;;;;;;;14.83;2.77;;;;;;;;;;5053852;28;20386;-64
2022/06/01 13:09:10;;;;;;;10.02;2.10;;;;;;;;;;5053888;28;20270;-64
2022/06/01 13:11:37;;;;;;;18.17;2.08;;;;;;;;;;5060704;28;20025;-64
2022/06/01 13:14:09;;;;;;;14.70;2.28;;;;;;;;;;5057608;28;20031;-64
2022/06/01 13:16:47;;;;;;;;;;;;;;;;;;5056139;28;20028;-63
2022/06/01 13:19:19;;;;;;;11.63;2.38;;;;;;;;;;5054738;28;19920;-63
2022/06/01 13:21:48;;;;;;;;;;;;;;;;;;5058505;28;20025;-64
2022/06/01 13:24:14;;;;;;;10.43;2.47;;;;;;;;;;5041542;28;20730;-64
2022/06/01 13:26:45;;;;;;;11.73;2.40;;;;;;;;;;5054043;28;20032;-64
2022/06/01 13:29:33;;;;;;;10.73;2.25;;;;;;;;;;5057558;28;20033;-64
2022/06/01 13:32:08;;;;;;;10.73;2.38;;;;;;;;;;5053535;28;20168;-64
2022/06/01 13:34:39;;;;;;;18.27;2.75;;;;;;;;;;5061579;28;20070;-64
2022/06/01 13:37:34;;;;;;;;;;;;;;;;;;5055718;28;20048;-64
2022/06/01 13:40:01;;;;;;;7.55;2.60;;;;;;;;;;5040467;28;20380;-64
2022/06/01 13:42:46;;;;;;;14.00;2.10;;;;;;;;;;5064023;28;20420;-63
2022/06/01 13:45:16;;;;;;;10.30;3.53;;;;;;;;;;5050476;28;20029;-64
2022/06/01 13:47:48;;;;;;;12.98;3.22;;;;;;;;;;5053012;28;20139;-63
2022/06/01 13:50:14;;;;;;;8.88;2.10;;;;;;;;;;5064409;28;20461;-67
2022/06/01 13:52:42;;;;;;;13.93;2.53;;;;;;;;;;5056850;28;20037;-64
2022/06/01 13:55:08;;;;;;;8.32;2.67;;;;;;;;;;5056249;28;20566;-63
2022/06/01 13:57:55;;;;;;;10.35;2.53;;;;;;;;;;5057041;28;20041;-64
2022/06/01 14:00:29;;;;;;;10.85;2.78;;;;;;;;;;5058176;28;20033;-64
2022/06/01 14:03:06;;;;;;;16.83;2.85;;;;;;;;;;5058754;28;20071;-64
2022/06/01 14:06:01;;;;;;;9.07;2.55;;;;;;;;;;5058418;28;20131;-63
2022/06/01 14:08:29;;;;;;;6.93;2.00;;;;;;;;;;5063111;28;20037;-64
2022/06/01 14:10:58;;;;;;;10.32;2.70;;;;;;;;;;5058182;28;20112;-64
2022/06/01 14:13:25;;;;;;;13.15;2.13;;;;;;;;;;5063626;28;20049;-64
2022/06/01 14:15:53;;;;;;;13.00;2.42;;;;;;;;;;5060113;28;20024;-63
2022/06/01 14:18:35;;;;;;;5.85;2.38;;;;;;;;;;5056733;28;20058;-64
2022/06/01 14:21:01;;;;;;;;;;;;;;;;;;5061848;28;20028;-64
2022/06/01 14:23:27;;;;;;;7.85;2.00;;;;;;;;;;5060904;28;19924;-63
2022/06/01 14:28:39;;;;;;;8.20;2.45;;;;;;;;;;5056781;28;20559;-64
2022/06/01 14:31:20;;;;;;;9.45;2.63;;;;;;;;;;5058253;28;20546;-64
2022/06/01 14:33:48;;;;;;;10.00;2.85;;;;;;;;;;5057748;28;20029;-64
2022/06/01 14:36:13;;;;;;;11.68;2.38;;;;;;;;;;5056110;28;20025;-63
2022/06/01 14:38:39;;;;;;;8.20;2.40;;;;;;;;;;5054901;28;20036;-64
2022/06/01 14:41:09;;;;;;;8.45;2.40;;;;;;;;;;5055931;28;20552;-63
2022/06/01 14:43:39;;;;;;;6.57;2.22;;;;;;;;;;5057346;28;20025;-64
2022/06/01 14:46:06;;;;;;;14.38;2.50;;;;;;;;;;5060789;28;20017;-63
2022/06/01 14:48:33;;;;;;;10.15;2.55;;;;;;;;;;5057304;28;20033;-64
2022/06/01 14:51:05;;;;;;;9.77;2.78;;;;;;;;;;5061249;28;20083;-64
2022/06/01 14:53:35;;;;;;;11.70;3.03;;;;;;;;;;5054155;28;20048;-63
2022/06/01 14:56:01;;;;;;;8.60;3.22;;;;;;;;;;5054774;28;20036;-64
2022/06/01 14:58:28;;;;;;;7.25;2.75;;;;;;;;;;5058414;28;20565;-66
2022/06/01 15:00:58;;;;;;;14.68;3.25;;;;;;;;;;5056212;28;20039;-65
2022/06/01 15:03:29;;;;;;;14.82;2.92;;;;;;;;;;5055003;28;20111;-65
2022/06/01 15:05:55;;;;;;;11.68;2.80;;;;;;;;;;5057220;28;20489;-64
2022/06/01 15:08:20;;;;;;;10.60;2.75;;;;;;;;;;5063864;28;20112;-64
2022/06/01 15:10:46;;;;;;;15.30;3.13;;;;;;;;;;5061083;28;20131;-64
2022/06/01 15:13:12;;;;;;;12.40;3.35;;;;;;;;;;5066724;28;20027;-65
2022/06/01 15:15:38;;;;;;;12.18;3.20;;;;;;;;;;5065591;28;20024;-64
2022/06/01 15:18:04;;;;;;;9.50;3.08;;;;;;;;;;5067519;28;20028;-65
2022/06/01 15:20:31;;;;;;;9.90;2.85;;;;;;;;;;5075508;28;20043;-65
2022/06/01 15:22:57;;;;;;;14.73;3.03;;;;;;;;;;5072054;28;20388;-64
2022/06/01 15:25:22;;;;;;;8.55;3.30;;;;;;;;;;5074609;28;20020;-65
2022/06/01 15:27:48;;;;;;;8.50;3.60;;;;;;;;;;5074024;28;20027;-64
2022/06/01 15:41:12;;;;;;;19.13;3.88;;;;;;;;;;5063961;28;20036;-65
2022/06/01 15:43:37;;;;;;;16.42;4.18;;;;;;;;;;5078939;28;20036;-64
2022/06/01 15:46:03;;;;;;;14.55;3.30;;;;;;;;;;5068159;28;20024;-64